sensor_id;sensor_type;location;lat;lon;timestamp;P1;durP1;ratioP1;P2;durP2;ratioP2
34236;SDS011;20501;45.956;13.632;2022-11-15T00:00:13;18.85;;;10.93;;
34236;SDS011;20501;45.956;13.632;2022-11-15T00:02:39;24.45;;;13.27;;
34236;SDS011;20501;45.956;13.632;2022-11-15T00:05:04;16.33;;;11.10;;
34236;SDS011;20501;45.956;13.632;2022-11-15T00:07:30;20.45;;;11.38;;
34236;SDS011;20501;45.956;13.632;2022-11-15T00:09:55;19.70;;;11.50;;
34236;SDS011;20501;45.956;13.632;2022-11-15T00:12:21;20.55;;;11.63;;
34236;SDS011;20501;45.956;13.632;2022-11-15T00:14:46;15.45;;;10.30;;
34236;SDS011;20501;45.956;13.632;2022-11-15T00:17:11;18.42;;;11.85;;
34236;SDS011;20501;45.956;13.632;2022-11-15T00:19:37;16.77;;;11.55;;
34236;SDS011;20501;45.956;13.632;2022-11-15T00:22:02;16.92;;;11.57;;
34236;SDS011;20501;45.956;13.632;2022-11-15T00:24:28;16.92;;;11.35;;
34236;SDS011;20501;45.956;13.632;2022-11-15T00:26:53;19.67;;;10.95;;
34236;SDS011;20501;45.956;13.632;2022-11-15T00:29:18;24.35;;;14.50;;
34236;SDS011;20501;45.956;13.632;2022-11-15T00:31:44;27.05;;;14.45;;
34236;SDS011;20501;45.956;13.632;2022-11-15T00:34:09;26.38;;;15.20;;
34236;SDS011;20501;45.956;13.632;2022-11-15T00:36:35;16.70;;;11.35;;
34236;SDS011;20501;45.956;13.632;2022-11-15T00:39:03;18.75;;;11.77;;
34236;SDS011;20501;45.956;13.632;2022-11-15T00:41:29;20.50;;;12.60;;
34236;SDS011;20501;45.956;13.632;2022-11-15T00:43:55;15.75;;;10.80;;
34236;SDS011;20501;45.956;13.632;2022-11-15T00:46:20;21.65;;;14.40;;
34236;SDS011;20501;45.956;13.632;2022-11-15T00:48:45;19.70;;;13.20;;
34236;SDS011;20501;45.956;13.632;2022-11-15T00:51:11;21.17;;;11.98;;
34236;SDS011;20501;45.956;13.632;2022-11-15T00:53:36;15.88;;;11.00;;
34236;SDS011;20501;45.956;13.632;2022-11-15T00:56:02;25.25;;;14.25;;
34236;SDS011;20501;45.956;13.632;2022-11-15T00:58:27;19.75;;;12.52;;
34236;SDS011;20501;45.956;13.632;2022-11-15T01:00:53;17.70;;;11.68;;
34236;SDS011;20501;45.956;13.632;2022-11-15T01:03:18;18.52;;;12.20;;
34236;SDS011;20501;45.956;13.632;2022-11-15T01:05:44;18.52;;;11.43;;
34236;SDS011;20501;45.956;13.632;2022-11-15T01:08:11;17.60;;;11.98;;
34236;SDS011;20501;45.956;13.632;2022-11-15T01:10:38;17.15;;;11.68;;
34236;SDS011;20501;45.956;13.632;2022-11-15T02:06:54;15.43;;;9.85;;
34236;SDS011;20501;45.956;13.632;2022-11-15T02:09:19;17.85;;;10.40;;
34236;SDS011;20501;45.956;13.632;2022-11-15T02:11:45;18.90;;;11.93;;
34236;SDS011;20501;45.956;13.632;2022-11-15T02:14:12;13.80;;;9.98;;
34236;SDS011;20501;45.956;13.632;2022-11-15T02:16:53;13.80;;;9.70;;
34236;SDS011;20501;45.956;13.632;2022-11-15T02:30:24;16.25;;;9.55;;
34236;SDS011;20501;45.956;13.632;2022-11-15T02:32:53;15.60;;;9.82;;
34236;SDS011;20501;45.956;13.632;2022-11-15T02:37:58;15.73;;;9.50;;
34236;SDS011;20501;45.956;13.632;2022-11-15T02:43:10;13.57;;;8.90;;
34236;SDS011;20501;45.956;13.632;2022-11-15T02:46:00;13.23;;;8.82;;
34236;SDS011;20501;45.956;13.632;2022-11-15T02:49:09;15.02;;;9.30;;
34236;SDS011;20501;45.956;13.632;2022-11-15T02:51:36;17.63;;;10.32;;
34236;SDS011;20501;45.956;13.632;2022-11-15T02:54:02;14.75;;;9.90;;
34236;SDS011;20501;45.956;13.632;2022-11-15T02:56:28;15.30;;;10.18;;
34236;SDS011;20501;45.956;13.632;2022-11-15T02:59:10;13.30;;;9.50;;
34236;SDS011;20501;45.956;13.632;2022-11-15T03:04:29;15.45;;;9.90;;
34236;SDS011;20501;45.956;13.632;2022-11-15T03:07:14;12.48;;;8.32;;
34236;SDS011;20501;45.956;13.632;2022-11-15T03:10:05;11.63;;;8.32;;
34236;SDS011;20501;45.956;13.632;2022-11-15T03:12:45;12.82;;;8.15;;
34236;SDS011;20501;45.956;13.632;2022-11-15T03:18:00;11.80;;;7.63;;
34236;SDS011;20501;45.956;13.632;2022-11-15T03:20:30;10.55;;;7.30;;
34236;SDS011;20501;45.956;13.632;2022-11-15T03:23:00;11.45;;;7.80;;
34236;SDS011;20501;45.956;13.632;2022-11-15T03:25:29;11.15;;;8.02;;
34236;SDS011;20501;45.956;13.632;2022-11-15T03:27:57;10.82;;;7.90;;
34236;SDS011;20501;45.956;13.632;2022-11-15T03:30:26;14.05;;;8.25;;
34236;SDS011;20501;45.956;13.632;2022-11-15T03:32:56;10.15;;;7.03;;
34236;SDS011;20501;45.956;13.632;2022-11-15T03:35:25;11.95;;;7.80;;
34236;SDS011;20501;45.956;13.632;2022-11-15T03:40:40;11.32;;;7.50;;
34236;SDS011;20501;45.956;13.632;2022-11-15T03:45:36;11.75;;;7.20;;
34236;SDS011;20501;45.956;13.632;2022-11-15T03:48:13;9.40;;;6.50;;
34236;SDS011;20501;45.956;13.632;2022-11-15T03:50:42;10.45;;;7.28;;
34236;SDS011;20501;45.956;13.632;2022-11-15T03:53:09;9.82;;;7.07;;
34236;SDS011;20501;45.956;13.632;2022-11-15T03:55:35;11.68;;;6.75;;
34236;SDS011;20501;45.956;13.632;2022-11-15T03:58:01;10.20;;;7.13;;
34236;SDS011;20501;45.956;13.632;2022-11-15T04:00:27;12.00;;;7.05;;
34236;SDS011;20501;45.956;13.632;2022-11-15T04:02:53;9.30;;;6.45;;
34236;SDS011;20501;45.956;13.632;2022-11-15T04:05:19;9.10;;;6.38;;
34236;SDS011;20501;45.956;13.632;2022-11-15T04:07:44;9.75;;;6.65;;
34236;SDS011;20501;45.956;13.632;2022-11-15T04:10:10;10.43;;;7.03;;
34236;SDS011;20501;45.956;13.632;2022-11-15T04:15:06;9.20;;;7.20;;
34236;SDS011;20501;45.956;13.632;2022-11-15T04:17:38;10.68;;;8.30;;
34236;SDS011;20501;45.956;13.632;2022-11-15T04:20:16;10.13;;;6.85;;
34236;SDS011;20501;45.956;13.632;2022-11-15T04:23:03;12.30;;;7.32;;
34236;SDS011;20501;45.956;13.632;2022-11-15T04:25:52;8.77;;;6.43;;
34236;SDS011;20501;45.956;13.632;2022-11-15T04:28:19;10.32;;;7.22;;
34236;SDS011;20501;45.956;13.632;2022-11-15T04:30:45;8.43;;;6.30;;
34236;SDS011;20501;45.956;13.632;2022-11-15T04:33:11;11.15;;;7.18;;
34236;SDS011;20501;45.956;13.632;2022-11-15T04:35:36;11.32;;;7.03;;
34236;SDS011;20501;45.956;13.632;2022-11-15T04:38:03;9.15;;;7.55;;
34236;SDS011;20501;45.956;13.632;2022-11-15T04:40:29;10.38;;;7.00;;
34236;SDS011;20501;45.956;13.632;2022-11-15T04:42:55;14.38;;;7.97;;
34236;SDS011;20501;45.956;13.632;2022-11-15T04:45:21;8.75;;;6.95;;
34236;SDS011;20501;45.956;13.632;2022-11-15T04:47:46;8.77;;;7.05;;
34236;SDS011;20501;45.956;13.632;2022-11-15T04:50:12;9.38;;;6.72;;
34236;SDS011;20501;45.956;13.632;2022-11-15T04:52:40;9.75;;;7.03;;
34236;SDS011;20501;45.956;13.632;2022-11-15T04:55:14;10.77;;;6.40;;
34236;SDS011;20501;45.956;13.632;2022-11-15T04:57:40;8.93;;;6.40;;
34236;SDS011;20501;45.956;13.632;2022-11-15T05:00:07;10.60;;;6.90;;
34236;SDS011;20501;45.956;13.632;2022-11-15T05:02:34;8.18;;;6.32;;
34236;SDS011;20501;45.956;13.632;2022-11-15T05:05:18;8.85;;;6.25;;
34236;SDS011;20501;45.956;13.632;2022-11-15T05:07:44;8.68;;;6.43;;
34236;SDS011;20501;45.956;13.632;2022-11-15T05:10:09;7.55;;;6.07;;
34236;SDS011;20501;45.956;13.632;2022-11-15T05:12:35;10.88;;;6.78;;
34236;SDS011;20501;45.956;13.632;2022-11-15T05:15:01;7.40;;;6.10;;
34236;SDS011;20501;45.956;13.632;2022-11-15T05:17:26;8.50;;;6.35;;
34236;SDS011;20501;45.956;13.632;2022-11-15T05:19:51;8.35;;;5.75;;
34236;SDS011;20501;45.956;13.632;2022-11-15T05:22:17;7.55;;;5.70;;
34236;SDS011;20501;45.956;13.632;2022-11-15T05:24:43;8.47;;;6.23;;
34236;SDS011;20501;45.956;13.632;2022-11-15T05:27:08;7.45;;;5.78;;
34236;SDS011;20501;45.956;13.632;2022-11-15T05:29:34;10.52;;;6.07;;
34236;SDS011;20501;45.956;13.632;2022-11-15T05:31:59;9.85;;;5.78;;
34236;SDS011;20501;45.956;13.632;2022-11-15T05:34:25;9.27;;;5.70;;
34236;SDS011;20501;45.956;13.632;2022-11-15T05:36:51;15.15;;;7.78;;
34236;SDS011;20501;45.956;13.632;2022-11-15T05:39:17;7.57;;;6.13;;
34236;SDS011;20501;45.956;13.632;2022-11-15T05:41:50;8.50;;;5.63;;
34236;SDS011;20501;45.956;13.632;2022-11-15T05:44:20;7.70;;;6.00;;
34236;SDS011;20501;45.956;13.632;2022-11-15T05:46:48;12.73;;;7.38;;
34236;SDS011;20501;45.956;13.632;2022-11-15T05:49:19;11.20;;;7.55;;
34236;SDS011;20501;45.956;13.632;2022-11-15T05:51:47;11.63;;;7.18;;
34236;SDS011;20501;45.956;13.632;2022-11-15T05:54:14;9.50;;;6.07;;
34236;SDS011;20501;45.956;13.632;2022-11-15T05:56:40;8.13;;;6.13;;
34236;SDS011;20501;45.956;13.632;2022-11-15T05:59:07;10.55;;;7.32;;
34236;SDS011;20501;45.956;13.632;2022-11-15T06:01:33;10.90;;;6.60;;
34236;SDS011;20501;45.956;13.632;2022-11-15T06:03:59;9.00;;;6.15;;
34236;SDS011;20501;45.956;13.632;2022-11-15T06:06:26;8.32;;;5.85;;
34236;SDS011;20501;45.956;13.632;2022-11-15T06:08:52;11.55;;;7.35;;
34236;SDS011;20501;45.956;13.632;2022-11-15T06:11:18;10.73;;;6.63;;
34236;SDS011;20501;45.956;13.632;2022-11-15T06:13:43;11.02;;;6.78;;
34236;SDS011;20501;45.956;13.632;2022-11-15T06:16:08;10.90;;;6.82;;
34236;SDS011;20501;45.956;13.632;2022-11-15T06:18:34;10.85;;;7.07;;
34236;SDS011;20501;45.956;13.632;2022-11-15T06:21:00;11.07;;;6.90;;
34236;SDS011;20501;45.956;13.632;2022-11-15T06:23:27;14.35;;;8.55;;
34236;SDS011;20501;45.956;13.632;2022-11-15T06:25:53;13.45;;;6.32;;
34236;SDS011;20501;45.956;13.632;2022-11-15T06:28:22;9.70;;;6.63;;
34236;SDS011;20501;45.956;13.632;2022-11-15T06:30:47;14.02;;;7.50;;
34236;SDS011;20501;45.956;13.632;2022-11-15T06:33:13;9.77;;;6.35;;
34236;SDS011;20501;45.956;13.632;2022-11-15T06:35:38;12.77;;;7.47;;
34236;SDS011;20501;45.956;13.632;2022-11-15T06:38:12;11.85;;;6.68;;
34236;SDS011;20501;45.956;13.632;2022-11-15T06:40:38;10.38;;;6.18;;
34236;SDS011;20501;45.956;13.632;2022-11-15T06:43:04;16.13;;;8.40;;
34236;SDS011;20501;45.956;13.632;2022-11-15T06:45:31;10.93;;;6.75;;
34236;SDS011;20501;45.956;13.632;2022-11-15T06:47:57;13.02;;;7.60;;
34236;SDS011;20501;45.956;13.632;2022-11-15T06:50:22;10.45;;;6.50;;
34236;SDS011;20501;45.956;13.632;2022-11-15T06:52:48;10.30;;;6.93;;
34236;SDS011;20501;45.956;13.632;2022-11-15T06:55:13;10.07;;;7.15;;
34236;SDS011;20501;45.956;13.632;2022-11-15T06:57:49;10.40;;;7.07;;
34236;SDS011;20501;45.956;13.632;2022-11-15T07:00:16;10.70;;;6.80;;
34236;SDS011;20501;45.956;13.632;2022-11-15T07:02:43;10.57;;;7.47;;
34236;SDS011;20501;45.956;13.632;2022-11-15T07:05:08;12.07;;;7.28;;
34236;SDS011;20501;45.956;13.632;2022-11-15T07:07:34;9.55;;;6.65;;
34236;SDS011;20501;45.956;13.632;2022-11-15T07:09:59;8.88;;;6.43;;
34236;SDS011;20501;45.956;13.632;2022-11-15T07:12:25;10.02;;;7.15;;
34236;SDS011;20501;45.956;13.632;2022-11-15T07:14:50;12.52;;;7.53;;
34236;SDS011;20501;45.956;13.632;2022-11-15T07:17:15;9.60;;;7.10;;
34236;SDS011;20501;45.956;13.632;2022-11-15T07:19:41;12.30;;;8.07;;
34236;SDS011;20501;45.956;13.632;2022-11-15T07:22:06;11.35;;;7.90;;
34236;SDS011;20501;45.956;13.632;2022-11-15T07:24:32;15.10;;;8.35;;
34236;SDS011;20501;45.956;13.632;2022-11-15T07:27:00;14.18;;;8.27;;
34236;SDS011;20501;45.956;13.632;2022-11-15T07:29:26;13.18;;;9.88;;
34236;SDS011;20501;45.956;13.632;2022-11-15T07:31:51;12.80;;;9.48;;
34236;SDS011;20501;45.956;13.632;2022-11-15T07:34:16;13.20;;;8.32;;
34236;SDS011;20501;45.956;13.632;2022-11-15T07:36:42;13.45;;;8.02;;
34236;SDS011;20501;45.956;13.632;2022-11-15T07:39:07;10.10;;;7.28;;
34236;SDS011;20501;45.956;13.632;2022-11-15T07:41:33;9.88;;;7.82;;
34236;SDS011;20501;45.956;13.632;2022-11-15T07:43:58;11.57;;;7.28;;
34236;SDS011;20501;45.956;13.632;2022-11-15T07:46:24;11.18;;;8.45;;
34236;SDS011;20501;45.956;13.632;2022-11-15T07:48:49;11.70;;;7.85;;
34236;SDS011;20501;45.956;13.632;2022-11-15T07:51:15;15.52;;;9.65;;
34236;SDS011;20501;45.956;13.632;2022-11-15T07:53:42;11.75;;;7.93;;
34236;SDS011;20501;45.956;13.632;2022-11-15T07:56:08;11.63;;;7.72;;
34236;SDS011;20501;45.956;13.632;2022-11-15T07:58:33;10.60;;;7.90;;
34236;SDS011;20501;45.956;13.632;2022-11-15T08:01:02;9.73;;;7.15;;
34236;SDS011;20501;45.956;13.632;2022-11-15T08:03:29;10.77;;;7.20;;
34236;SDS011;20501;45.956;13.632;2022-11-15T08:05:54;12.98;;;7.38;;
34236;SDS011;20501;45.956;13.632;2022-11-15T08:08:19;13.93;;;8.05;;
34236;SDS011;20501;45.956;13.632;2022-11-15T08:10:45;9.75;;;7.32;;
34236;SDS011;20501;45.956;13.632;2022-11-15T08:13:11;9.85;;;6.85;;
34236;SDS011;20501;45.956;13.632;2022-11-15T08:15:37;10.30;;;7.63;;
34236;SDS011;20501;45.956;13.632;2022-11-15T08:18:04;17.10;;;9.20;;
34236;SDS011;20501;45.956;13.632;2022-11-15T08:20:32;10.48;;;6.97;;
34236;SDS011;20501;45.956;13.632;2022-11-15T08:22:58;14.93;;;8.30;;
34236;SDS011;20501;45.956;13.632;2022-11-15T08:25:25;12.52;;;7.82;;
34236;SDS011;20501;45.956;13.632;2022-11-15T08:27:55;17.17;;;7.88;;
34236;SDS011;20501;45.956;13.632;2022-11-15T08:30:21;12.93;;;7.70;;
34236;SDS011;20501;45.956;13.632;2022-11-15T08:32:50;12.50;;;7.65;;
34236;SDS011;20501;45.956;13.632;2022-11-15T08:35:17;11.43;;;7.32;;
34236;SDS011;20501;45.956;13.632;2022-11-15T08:37:43;15.98;;;8.95;;
34236;SDS011;20501;45.956;13.632;2022-11-15T08:40:08;14.38;;;9.00;;
34236;SDS011;20501;45.956;13.632;2022-11-15T08:42:34;12.25;;;8.13;;
34236;SDS011;20501;45.956;13.632;2022-11-15T08:45:01;15.25;;;9.40;;
34236;SDS011;20501;45.956;13.632;2022-11-15T08:47:26;12.10;;;7.55;;
34236;SDS011;20501;45.956;13.632;2022-11-15T08:49:52;11.70;;;7.88;;
34236;SDS011;20501;45.956;13.632;2022-11-15T08:52:18;10.95;;;7.20;;
34236;SDS011;20501;45.956;13.632;2022-11-15T08:54:43;13.07;;;8.48;;
34236;SDS011;20501;45.956;13.632;2022-11-15T08:57:09;11.80;;;7.50;;
34236;SDS011;20501;45.956;13.632;2022-11-15T08:59:35;14.23;;;8.68;;
34236;SDS011;20501;45.956;13.632;2022-11-15T09:02:01;12.35;;;7.28;;
34236;SDS011;20501;45.956;13.632;2022-11-15T09:04:27;11.90;;;7.47;;
34236;SDS011;20501;45.956;13.632;2022-11-15T09:06:52;13.82;;;7.75;;
34236;SDS011;20501;45.956;13.632;2022-11-15T09:09:18;12.13;;;7.25;;
34236;SDS011;20501;45.956;13.632;2022-11-15T09:11:43;11.98;;;7.40;;
34236;SDS011;20501;45.956;13.632;2022-11-15T09:14:10;10.35;;;7.03;;
34236;SDS011;20501;45.956;13.632;2022-11-15T09:16:39;14.20;;;7.68;;
34236;SDS011;20501;45.956;13.632;2022-11-15T09:19:05;13.80;;;8.00;;
34236;SDS011;20501;45.956;13.632;2022-11-15T09:21:31;10.60;;;6.88;;
34236;SDS011;20501;45.956;13.632;2022-11-15T09:23:57;10.98;;;6.35;;
34236;SDS011;20501;45.956;13.632;2022-11-15T09:26:22;12.57;;;8.05;;
34236;SDS011;20501;45.956;13.632;2022-11-15T09:28:47;10.60;;;7.07;;
34236;SDS011;20501;45.956;13.632;2022-11-15T09:31:13;9.73;;;6.95;;
34236;SDS011;20501;45.956;13.632;2022-11-15T09:33:39;11.50;;;7.07;;
34236;SDS011;20501;45.956;13.632;2022-11-15T09:36:06;12.55;;;7.95;;
34236;SDS011;20501;45.956;13.632;2022-11-15T09:38:33;10.90;;;7.15;;
34236;SDS011;20501;45.956;13.632;2022-11-15T09:49:03;10.52;;;6.63;;
34236;SDS011;20501;45.956;13.632;2022-11-15T09:51:33;14.10;;;9.00;;
34236;SDS011;20501;45.956;13.632;2022-11-15T09:54:15;12.10;;;7.32;;
34236;SDS011;20501;45.956;13.632;2022-11-15T09:56:52;11.52;;;6.93;;
34236;SDS011;20501;45.956;13.632;2022-11-15T10:04:22;11.07;;;7.32;;
34236;SDS011;20501;45.956;13.632;2022-11-15T10:12:29;8.52;;;5.88;;
34236;SDS011;20501;45.956;13.632;2022-11-15T10:15:06;10.57;;;6.25;;
34236;SDS011;20501;45.956;13.632;2022-11-15T10:18:12;10.25;;;6.85;;
34236;SDS011;20501;45.956;13.632;2022-11-15T10:20:49;9.20;;;6.65;;
34236;SDS011;20501;45.956;13.632;2022-11-15T10:23:20;10.40;;;6.65;;
34236;SDS011;20501;45.956;13.632;2022-11-15T10:25:46;7.97;;;5.93;;
34236;SDS011;20501;45.956;13.632;2022-11-15T10:30:48;12.10;;;7.55;;
34236;SDS011;20501;45.956;13.632;2022-11-15T10:33:19;10.15;;;6.00;;
34236;SDS011;20501;45.956;13.632;2022-11-15T10:43:45;8.60;;;5.93;;
34236;SDS011;20501;45.956;13.632;2022-11-15T10:49:24;10.88;;;7.35;;
34236;SDS011;20501;45.956;13.632;2022-11-15T10:57:12;11.48;;;7.47;;
34236;SDS011;20501;45.956;13.632;2022-11-15T10:59:38;12.23;;;7.95;;
34236;SDS011;20501;45.956;13.632;2022-11-15T11:04:51;9.95;;;7.25;;
34236;SDS011;20501;45.956;13.632;2022-11-15T11:07:22;14.40;;;8.18;;
34236;SDS011;20501;45.956;13.632;2022-11-15T11:10:17;11.27;;;7.30;;
34236;SDS011;20501;45.956;13.632;2022-11-15T11:12:44;13.88;;;8.25;;
34236;SDS011;20501;45.956;13.632;2022-11-15T11:15:11;14.13;;;7.72;;
34236;SDS011;20501;45.956;13.632;2022-11-15T11:28:39;11.93;;;6.47;;
34236;SDS011;20501;45.956;13.632;2022-11-15T11:36:39;11.65;;;6.70;;
34236;SDS011;20501;45.956;13.632;2022-11-15T11:42:03;11.73;;;6.28;;
34236;SDS011;20501;45.956;13.632;2022-11-15T11:44:43;11.00;;;6.05;;
34236;SDS011;20501;45.956;13.632;2022-11-15T11:47:24;14.88;;;8.25;;
34236;SDS011;20501;45.956;13.632;2022-11-15T11:50:15;13.75;;;7.32;;
34236;SDS011;20501;45.956;13.632;2022-11-15T12:00:41;8.93;;;6.30;;
34236;SDS011;20501;45.956;13.632;2022-11-15T12:03:17;8.48;;;5.28;;
34236;SDS011;20501;45.956;13.632;2022-11-15T12:06:47;9.25;;;5.80;;
34236;SDS011;20501;45.956;13.632;2022-11-15T12:09:07;11.13;;;5.53;;
34236;SDS011;20501;45.956;13.632;2022-11-15T12:11:54;8.25;;;4.95;;
34236;SDS011;20501;45.956;13.632;2022-11-15T12:15:12;9.68;;;5.55;;
34236;SDS011;20501;45.956;13.632;2022-11-15T12:17:17;11.55;;;5.78;;
34236;SDS011;20501;45.956;13.632;2022-11-15T12:19:47;10.57;;;5.45;;
34236;SDS011;20501;45.956;13.632;2022-11-15T12:24:43;10.07;;;5.63;;
34236;SDS011;20501;45.956;13.632;2022-11-15T12:27:40;9.05;;;5.65;;
34236;SDS011;20501;45.956;13.632;2022-11-15T12:30:12;12.57;;;6.00;;
34236;SDS011;20501;45.956;13.632;2022-11-15T12:32:49;9.20;;;5.65;;
34236;SDS011;20501;45.956;13.632;2022-11-15T12:37:58;13.65;;;6.82;;
34236;SDS011;20501;45.956;13.632;2022-11-15T12:40:27;8.68;;;5.75;;
34236;SDS011;20501;45.956;13.632;2022-11-15T12:45:38;8.32;;;5.50;;
34236;SDS011;20501;45.956;13.632;2022-11-15T13:11:55;12.60;;;7.00;;
34236;SDS011;20501;45.956;13.632;2022-11-15T13:17:12;7.13;;;5.30;;
34236;SDS011;20501;45.956;13.632;2022-11-15T13:19:44;15.00;;;8.48;;
34236;SDS011;20501;45.956;13.632;2022-11-15T13:22:12;8.13;;;5.70;;
34236;SDS011;20501;45.956;13.632;2022-11-15T13:24:57;17.55;;;10.93;;
34236;SDS011;20501;45.956;13.632;2022-11-15T13:27:24;8.98;;;6.75;;
34236;SDS011;20501;45.956;13.632;2022-11-15T13:29:49;13.93;;;8.38;;
34236;SDS011;20501;45.956;13.632;2022-11-15T13:32:15;13.18;;;8.63;;
34236;SDS011;20501;45.956;13.632;2022-11-15T13:34:48;17.80;;;10.52;;
34236;SDS011;20501;45.956;13.632;2022-11-15T13:39:46;16.02;;;10.20;;
34236;SDS011;20501;45.956;13.632;2022-11-15T13:44:40;15.63;;;9.52;;
34236;SDS011;20501;45.956;13.632;2022-11-15T13:47:25;18.13;;;11.68;;
34236;SDS011;20501;45.956;13.632;2022-11-15T13:49:52;13.93;;;8.55;;
34236;SDS011;20501;45.956;13.632;2022-11-15T13:52:18;17.95;;;10.43;;
34236;SDS011;20501;45.956;13.632;2022-11-15T13:54:47;20.23;;;11.70;;
34236;SDS011;20501;45.956;13.632;2022-11-15T13:57:29;16.63;;;10.77;;
34236;SDS011;20501;45.956;13.632;2022-11-15T14:00:06;10.57;;;7.22;;
34236;SDS011;20501;45.956;13.632;2022-11-15T14:05:39;11.52;;;7.68;;
34236;SDS011;20501;45.956;13.632;2022-11-15T14:10:45;9.20;;;6.60;;
34236;SDS011;20501;45.956;13.632;2022-11-15T14:14:02;10.95;;;7.13;;
34236;SDS011;20501;45.956;13.632;2022-11-15T14:16:16;27.30;;;16.80;;
34236;SDS011;20501;45.956;13.632;2022-11-15T14:18:52;23.23;;;14.88;;
34236;SDS011;20501;45.956;13.632;2022-11-15T14:21:18;17.17;;;9.85;;
34236;SDS011;20501;45.956;13.632;2022-11-15T14:23:44;26.00;;;12.63;;
34236;SDS011;20501;45.956;13.632;2022-11-15T14:26:25;15.88;;;10.40;;
34236;SDS011;20501;45.956;13.632;2022-11-15T14:28:54;31.45;;;18.15;;
34236;SDS011;20501;45.956;13.632;2022-11-15T14:31:20;24.42;;;12.77;;
34236;SDS011;20501;45.956;13.632;2022-11-15T14:33:46;31.85;;;18.67;;
34236;SDS011;20501;45.956;13.632;2022-11-15T14:36:15;20.88;;;13.25;;
34236;SDS011;20501;45.956;13.632;2022-11-15T14:38:42;15.88;;;10.70;;
34236;SDS011;20501;45.956;13.632;2022-11-15T14:43:44;17.48;;;11.13;;
34236;SDS011;20501;45.956;13.632;2022-11-15T14:46:09;15.68;;;10.85;;
34236;SDS011;20501;45.956;13.632;2022-11-15T14:48:35;18.20;;;10.90;;
34236;SDS011;20501;45.956;13.632;2022-11-15T14:51:01;19.67;;;11.95;;
34236;SDS011;20501;45.956;13.632;2022-11-15T14:53:26;33.67;;;21.20;;
34236;SDS011;20501;45.956;13.632;2022-11-15T14:55:52;35.50;;;22.02;;
34236;SDS011;20501;45.956;13.632;2022-11-15T14:58:17;43.63;;;23.13;;
34236;SDS011;20501;45.956;13.632;2022-11-15T15:00:43;31.48;;;17.25;;
34236;SDS011;20501;45.956;13.632;2022-11-15T15:03:08;47.95;;;23.98;;
34236;SDS011;20501;45.956;13.632;2022-11-15T15:05:38;51.97;;;20.88;;
34236;SDS011;20501;45.956;13.632;2022-11-15T15:08:05;25.73;;;13.85;;
34236;SDS011;20501;45.956;13.632;2022-11-15T15:10:32;27.30;;;13.30;;
34236;SDS011;20501;45.956;13.632;2022-11-15T15:13:00;26.58;;;12.95;;
34236;SDS011;20501;45.956;13.632;2022-11-15T15:15:29;29.33;;;17.60;;
34236;SDS011;20501;45.956;13.632;2022-11-15T15:17:57;19.63;;;13.20;;
34236;SDS011;20501;45.956;13.632;2022-11-15T15:20:23;20.10;;;11.85;;
34236;SDS011;20501;45.956;13.632;2022-11-15T15:22:48;37.00;;;21.98;;
34236;SDS011;20501;45.956;13.632;2022-11-15T15:25:21;19.88;;;12.05;;
34236;SDS011;20501;45.956;13.632;2022-11-15T15:27:47;20.38;;;12.25;;
34236;SDS011;20501;45.956;13.632;2022-11-15T15:30:13;19.27;;;12.20;;
34236;SDS011;20501;45.956;13.632;2022-11-15T15:32:38;22.75;;;12.85;;
34236;SDS011;20501;45.956;13.632;2022-11-15T15:35:04;23.15;;;12.70;;
34236;SDS011;20501;45.956;13.632;2022-11-15T15:37:30;20.92;;;12.68;;
34236;SDS011;20501;45.956;13.632;2022-11-15T15:39:58;21.65;;;12.10;;
34236;SDS011;20501;45.956;13.632;2022-11-15T15:44:50;20.90;;;12.32;;
34236;SDS011;20501;45.956;13.632;2022-11-15T15:47:17;20.50;;;12.70;;
34236;SDS011;20501;45.956;13.632;2022-11-15T15:49:44;21.52;;;12.25;;
34236;SDS011;20501;45.956;13.632;2022-11-15T15:52:10;20.17;;;12.97;;
34236;SDS011;20501;45.956;13.632;2022-11-15T15:54:36;19.17;;;12.35;;
34236;SDS011;20501;45.956;13.632;2022-11-15T15:57:03;21.58;;;12.40;;
34236;SDS011;20501;45.956;13.632;2022-11-15T15:59:29;19.90;;;12.65;;
34236;SDS011;20501;45.956;13.632;2022-11-15T16:01:55;21.50;;;12.82;;
34236;SDS011;20501;45.956;13.632;2022-11-15T16:04:20;19.83;;;12.82;;
34236;SDS011;20501;45.956;13.632;2022-11-15T16:06:46;19.92;;;12.60;;
34236;SDS011;20501;45.956;13.632;2022-11-15T16:09:15;34.72;;;19.98;;
34236;SDS011;20501;45.956;13.632;2022-11-15T16:11:44;19.10;;;13.18;;
34236;SDS011;20501;45.956;13.632;2022-11-15T16:14:10;20.27;;;13.52;;
34236;SDS011;20501;45.956;13.632;2022-11-15T16:16:35;19.42;;;14.23;;
34236;SDS011;20501;45.956;13.632;2022-11-15T16:19:02;24.10;;;15.47;;
34236;SDS011;20501;45.956;13.632;2022-11-15T16:21:28;38.65;;;22.25;;
34236;SDS011;20501;45.956;13.632;2022-11-15T16:23:54;23.70;;;15.70;;
34236;SDS011;20501;45.956;13.632;2022-11-15T16:28:52;26.15;;;15.98;;
34236;SDS011;20501;45.956;13.632;2022-11-15T16:31:18;25.27;;;16.00;;
34236;SDS011;20501;45.956;13.632;2022-11-15T16:33:46;28.92;;;16.88;;
34236;SDS011;20501;45.956;13.632;2022-11-15T16:36:24;25.05;;;16.13;;
34236;SDS011;20501;45.956;13.632;2022-11-15T16:38:51;25.35;;;15.73;;
34236;SDS011;20501;45.956;13.632;2022-11-15T16:41:17;25.65;;;16.05;;
34236;SDS011;20501;45.956;13.632;2022-11-15T16:43:44;23.77;;;16.10;;
34236;SDS011;20501;45.956;13.632;2022-11-15T16:46:14;24.75;;;15.77;;
34236;SDS011;20501;45.956;13.632;2022-11-15T16:48:42;29.38;;;18.08;;
34236;SDS011;20501;45.956;13.632;2022-11-15T16:51:08;47.03;;;28.00;;
34236;SDS011;20501;45.956;13.632;2022-11-15T16:53:34;33.80;;;20.15;;
34236;SDS011;20501;45.956;13.632;2022-11-15T16:56:00;57.80;;;34.40;;
34236;SDS011;20501;45.956;13.632;2022-11-15T16:58:25;54.15;;;31.77;;
34236;SDS011;20501;45.956;13.632;2022-11-15T17:00:51;57.40;;;33.35;;
34236;SDS011;20501;45.956;13.632;2022-11-15T17:05:43;31.60;;;18.92;;
34236;SDS011;20501;45.956;13.632;2022-11-15T17:08:09;31.23;;;20.27;;
34236;SDS011;20501;45.956;13.632;2022-11-15T17:10:37;30.88;;;19.10;;
34236;SDS011;20501;45.956;13.632;2022-11-15T17:13:04;34.03;;;20.10;;
34236;SDS011;20501;45.956;13.632;2022-11-15T17:15:29;34.08;;;19.92;;
34236;SDS011;20501;45.956;13.632;2022-11-15T17:17:54;30.98;;;19.15;;
34236;SDS011;20501;45.956;13.632;2022-11-15T17:20:21;27.73;;;17.45;;
34236;SDS011;20501;45.956;13.632;2022-11-15T17:22:48;27.90;;;17.83;;
34236;SDS011;20501;45.956;13.632;2022-11-15T17:25:14;28.40;;;17.30;;
34236;SDS011;20501;45.956;13.632;2022-11-15T17:27:40;25.15;;;16.33;;
34236;SDS011;20501;45.956;13.632;2022-11-15T17:30:06;25.63;;;16.70;;
34236;SDS011;20501;45.956;13.632;2022-11-15T17:32:34;31.77;;;19.43;;
34236;SDS011;20501;45.956;13.632;2022-11-15T17:35:01;24.48;;;15.45;;
34236;SDS011;20501;45.956;13.632;2022-11-15T17:37:27;24.02;;;14.65;;
34236;SDS011;20501;45.956;13.632;2022-11-15T17:39:52;26.75;;;19.42;;
34236;SDS011;20501;45.956;13.632;2022-11-15T17:42:18;29.67;;;19.10;;
34236;SDS011;20501;45.956;13.632;2022-11-15T17:44:43;29.67;;;18.67;;
34236;SDS011;20501;45.956;13.632;2022-11-15T17:47:09;25.42;;;15.63;;
34236;SDS011;20501;45.956;13.632;2022-11-15T17:49:34;24.05;;;16.50;;
34236;SDS011;20501;45.956;13.632;2022-11-15T17:52:03;25.02;;;15.38;;